createdAt,value
2017-05-27T00:02:03.849Z,59.10
2017-05-27T00:04:32.125Z,59.10
2017-05-27T00:07:00.455Z,59.20
2017-05-27T00:09:28.741Z,59.30
2017-05-27T00:11:57.939Z,59.10
2017-05-27T00:14:26.225Z,59.30
2017-05-27T00:16:54.522Z,59.30
2017-05-27T00:19:22.874Z,59.70
2017-05-27T00:21:51.154Z,59.70
2017-05-27T00:24:19.498Z,59.70
2017-05-27T00:26:47.011Z,59.70
2017-05-27T00:29:15.293Z,59.90
2017-05-27T00:31:42.938Z,59.90
2017-05-27T00:34:11.252Z,60.20
2017-05-27T00:36:38.775Z,60.20
2017-05-27T00:39:07.090Z,60.10
2017-05-27T00:41:35.375Z,60.30
2017-05-27T00:44:03.660Z,60.50
2017-05-27T00:46:31.207Z,60.40
2017-05-27T00:48:59.515Z,60.70
2017-05-27T00:51:27.811Z,60.80
2017-05-27T00:53:56.367Z,60.80
2017-05-27T00:56:24.737Z,61.70
2017-05-27T00:58:53.080Z,61.10
2017-05-27T01:01:21.377Z,61.20
2017-05-27T01:03:49.675Z,61.30
2017-05-27T01:06:17.207Z,61.30
2017-05-27T01:08:45.509Z,61.70
2017-05-27T01:11:13.794Z,62.00
2017-05-27T01:13:42.068Z,62.00
2017-05-27T01:16:10.350Z,62.00
2017-05-27T01:18:38.852Z,62.20
2017-05-27T01:21:07.144Z,62.50
2017-05-27T01:23:35.419Z,62.30
2017-05-27T01:26:03.708Z,62.10
2017-05-27T01:28:31.978Z,62.00
2017-05-27T01:31:00.274Z,62.30
2017-05-27T01:33:28.610Z,62.40
2017-05-27T01:35:56.880Z,62.40
2017-05-27T01:38:25.180Z,63.20
2017-05-27T01:40:53.473Z,62.50
2017-05-27T01:43:21.779Z,62.60
2017-05-27T01:45:50.055Z,62.60
2017-05-27T01:48:18.359Z,62.90
2017-05-27T01:50:46.655Z,63.10
2017-05-27T01:53:14.931Z,63.30
2017-05-27T01:55:43.213Z,63.50
2017-05-27T01:58:11.495Z,63.60
2017-05-27T02:00:39.763Z,63.80
2017-05-27T02:03:08.055Z,63.80
2017-05-27T02:05:36.347Z,63.70
2017-05-27T02:08:04.666Z,64.00
2017-05-27T02:10:32.974Z,64.10
2017-05-27T02:13:01.252Z,63.90
2017-05-27T02:15:29.542Z,64.00
2017-05-27T02:17:57.845Z,64.20
2017-05-27T02:20:26.128Z,64.10
2017-05-27T02:22:54.410Z,64.50
2017-05-27T02:25:22.717Z,64.50
2017-05-27T02:27:51.244Z,64.50
2017-05-27T02:30:19.535Z,64.50
2017-05-27T02:32:47.812Z,64.60
2017-05-27T02:35:16.104Z,64.80
2017-05-27T02:37:44.384Z,64.70
2017-05-27T02:40:12.674Z,64.80
2017-05-27T02:42:40.953Z,65.00
2017-05-27T02:45:08.447Z,65.00
2017-05-27T02:47:36.789Z,65.40
2017-05-27T02:50:05.076Z,65.10
2017-05-27T02:52:33.374Z,65.30
2017-05-27T02:55:01.661Z,65.30
2017-05-27T02:57:30.493Z,65.70
2017-05-27T02:59:58.798Z,65.80
2017-05-27T03:02:27.088Z,65.70
2017-05-27T03:04:54.631Z,65.70
2017-05-27T03:07:22.931Z,65.80
2017-05-27T03:09:51.222Z,65.80
2017-05-27T03:12:19.500Z,65.90
2017-05-27T03:14:47.788Z,65.90
2017-05-27T03:17:16.086Z,66.10
2017-05-27T03:19:44.384Z,66.20
2017-05-27T03:22:12.903Z,66.20
2017-05-27T03:24:41.190Z,66.20
2017-05-27T03:27:09.462Z,66.20
2017-05-27T03:29:37.758Z,66.20
2017-05-27T03:32:06.031Z,66.10
2017-05-27T03:34:34.309Z,66.30
2017-05-27T03:37:02.608Z,66.30
2017-05-27T03:39:30.879Z,66.20
2017-05-27T03:41:59.163Z,66.40
2017-05-27T03:44:27.455Z,66.30
2017-05-27T03:46:55.730Z,66.40
2017-05-27T03:49:24.010Z,66.60
2017-05-27T03:51:51.519Z,66.60
2017-05-27T03:54:19.786Z,66.40
2017-05-27T03:56:48.266Z,66.20
2017-05-27T03:59:16.541Z,66.60
2017-05-27T04:01:44.824Z,66.40
2017-05-27T04:04:13.628Z,66.30
2017-05-27T04:06:41.895Z,66.30
2017-05-27T04:09:10.164Z,66.00
2017-05-27T04:11:38.446Z,66.00
2017-05-27T04:14:06.735Z,66.20
2017-05-27T04:16:35.025Z,66.40
2017-05-27T04:19:03.304Z,66.00
2017-05-27T04:21:31.611Z,65.90
2017-05-27T04:23:59.133Z,65.90
2017-05-27T04:26:26.635Z,65.90
2017-05-27T04:28:54.163Z,65.70
2017-05-27T04:31:21.670Z,66.40
2017-05-27T04:33:49.961Z,65.10
2017-05-27T04:36:18.250Z,65.10
2017-05-27T04:38:46.542Z,64.80
2017-05-27T04:41:14.820Z,64.40
2017-05-27T04:43:43.108Z,63.80
2017-05-27T04:46:11.399Z,63.70
2017-05-27T04:48:39.676Z,63.50
2017-05-27T04:51:08.226Z,63.20
2017-05-27T04:53:36.538Z,62.50
2017-05-27T04:56:04.823Z,62.10
2017-05-27T04:58:32.339Z,62.00
2017-05-27T05:01:00.628Z,59.70
2017-05-27T05:03:28.909Z,58.90
2017-05-27T05:05:57.203Z,58.10
2017-05-27T05:08:25.499Z,57.70
2017-05-27T05:10:53.787Z,57.90
2017-05-27T05:13:22.067Z,58.00
2017-05-27T05:15:50.354Z,57.90
2017-05-27T05:18:18.670Z,58.30
2017-05-27T05:20:46.954Z,58.60
2017-05-27T05:23:15.250Z,58.60
2017-05-27T05:25:43.736Z,58.70
2017-05-27T05:28:11.259Z,58.70
2017-05-27T05:30:39.542Z,58.40
2017-05-27T05:33:07.823Z,58.50
2017-05-27T05:35:36.129Z,58.00
2017-05-27T05:38:04.440Z,58.30
2017-05-27T05:40:32.722Z,58.40
2017-05-27T05:43:01.009Z,58.20
2017-05-27T05:45:29.331Z,57.90
2017-05-27T05:47:57.612Z,57.50
2017-05-27T05:50:25.908Z,56.70
2017-05-27T05:52:54.179Z,56.70
2017-05-27T05:55:21.710Z,56.70
2017-05-27T05:57:49.995Z,56.60
2017-05-27T06:00:18.277Z,56.40
2017-05-27T06:02:46.576Z,56.50
2017-05-27T06:05:14.860Z,56.40
2017-05-27T06:07:43.172Z,56.70
2017-05-27T06:10:11.479Z,56.80
2017-05-27T06:12:39.758Z,56.80
2017-05-27T06:15:08.136Z,56.30
2017-05-27T06:17:36.499Z,56.50
2017-05-27T06:20:04.774Z,56.60
2017-05-27T06:22:33.046Z,56.20
2017-05-27T06:25:01.338Z,56.10
2017-05-27T06:27:29.610Z,55.60
2017-05-27T06:29:57.930Z,55.50
2017-05-27T06:32:26.206Z,54.90
2017-05-27T06:34:54.495Z,54.70
2017-05-27T06:37:22.766Z,54.90
2017-05-27T06:39:51.046Z,54.80
2017-05-27T06:42:19.338Z,54.60
2017-05-27T06:44:47.606Z,54.20
2017-05-27T06:47:15.891Z,54.20
2017-05-27T06:49:44.180Z,54.30
2017-05-27T06:52:12.484Z,54.20
2017-05-27T06:54:40.759Z,54.00
2017-05-27T06:57:09.053Z,53.60
2017-05-27T06:59:37.326Z,53.70
2017-05-27T07:02:05.617Z,53.40
2017-05-27T07:04:33.922Z,52.90
2017-05-27T07:07:02.230Z,52.10
2017-05-27T07:09:30.515Z,51.40
2017-05-27T07:11:58.787Z,52.00
2017-05-27T07:14:27.102Z,51.30
2017-05-27T07:16:55.399Z,50.80
2017-05-27T07:19:23.662Z,50.70
2017-05-27T07:21:52.006Z,50.60
2017-05-27T07:24:20.316Z,50.60
2017-05-27T07:26:48.598Z,50.20
2017-05-27T07:29:17.292Z,49.70
2017-05-27T07:31:45.621Z,49.70
2017-05-27T07:34:13.943Z,49.50
2017-05-27T07:36:42.235Z,49.80
2017-05-27T07:39:10.534Z,49.80
2017-05-27T07:41:39.227Z,48.70
2017-05-27T07:44:07.504Z,48.10
2017-05-27T07:46:35.826Z,47.70
2017-05-27T07:49:04.134Z,47.60
2017-05-27T07:51:32.427Z,46.80
2017-05-27T07:54:00.738Z,45.90
2017-05-27T07:56:29.050Z,44.90
2017-05-27T07:58:57.353Z,45.30
2017-05-27T08:01:25.631Z,45.10
2017-05-27T08:03:53.953Z,45.10
2017-05-27T08:06:22.239Z,44.80
2017-05-27T08:08:50.527Z,44.40
2017-05-27T08:11:18.813Z,44.00
2017-05-27T08:13:47.100Z,44.30
2017-05-27T08:16:15.751Z,43.30
2017-05-27T08:18:43.277Z,43.30
2017-05-27T08:21:11.558Z,44.10
2017-05-27T08:23:40.161Z,42.60
2017-05-27T08:26:08.442Z,43.00
2017-05-27T08:28:35.970Z,43.00
2017-05-27T08:31:04.284Z,43.10
2017-05-27T08:33:38.311Z,43.30
2017-05-27T08:36:06.596Z,42.30
2017-05-27T08:38:34.878Z,42.60
2017-05-27T08:41:03.179Z,42.20
2017-05-27T08:43:32.420Z,40.00
2017-05-27T08:46:00.702Z,40.30
2017-05-27T08:48:28.992Z,39.40
2017-05-27T08:50:57.354Z,39.90
2017-05-27T08:53:25.630Z,39.70
2017-05-27T08:55:53.905Z,39.50
2017-05-27T08:58:22.225Z,40.10
2017-05-27T09:00:50.512Z,39.80
2017-05-27T09:03:18.839Z,39.90
2017-05-27T09:05:47.131Z,37.80
2017-05-27T09:08:15.424Z,37.10
2017-05-27T09:10:43.712Z,36.90
2017-05-27T09:13:11.252Z,36.90
2017-05-27T09:15:39.542Z,37.00
2017-05-27T09:18:07.825Z,37.30
2017-05-27T09:20:36.121Z,37.50
2017-05-27T09:23:04.412Z,37.30
2017-05-27T09:25:32.683Z,37.40
2017-05-27T09:28:01.169Z,37.20
2017-05-27T09:30:29.577Z,37.00
2017-05-27T09:32:57.838Z,37.50
2017-05-27T09:35:26.134Z,36.60
2017-05-27T09:37:54.593Z,36.10
2017-05-27T09:40:22.890Z,35.10
2017-05-27T09:42:51.172Z,36.00
2017-05-27T09:45:19.461Z,36.00
2017-05-27T09:47:47.762Z,35.10
2017-05-27T09:50:16.099Z,34.50
2017-05-27T09:52:44.366Z,35.00
2017-05-27T09:55:12.658Z,34.10
2017-05-27T09:57:40.985Z,34.00
2017-05-27T10:00:09.338Z,34.30
2017-05-27T10:02:37.619Z,35.00
2017-05-27T10:05:05.922Z,35.10
2017-05-27T10:07:34.181Z,33.90
2017-05-27T10:10:02.453Z,33.50
2017-05-27T10:12:30.831Z,34.00
2017-05-27T10:14:59.106Z,34.00
2017-05-27T10:17:27.397Z,32.90
2017-05-27T10:19:55.659Z,33.60
2017-05-27T10:22:23.953Z,33.30
2017-05-27T10:24:51.498Z,33.30
2017-05-27T10:27:19.784Z,34.20
2017-05-27T10:29:48.064Z,34.00
2017-05-27T10:32:16.772Z,33.00
2017-05-27T10:34:45.273Z,32.60
2017-05-27T10:37:13.581Z,30.50
2017-05-27T10:39:41.880Z,27.50
2017-05-27T10:42:10.222Z,23.90
2017-05-27T10:44:38.505Z,22.60
2017-05-27T10:47:06.840Z,21.10
2017-05-27T10:49:35.136Z,20.60
2017-05-27T10:52:03.478Z,18.30
2017-05-27T10:54:31.780Z,17.80
2017-05-27T10:57:00.066Z,16.70
2017-05-27T10:59:28.343Z,16.30
2017-05-27T11:01:56.659Z,15.10
2017-05-27T11:04:24.945Z,14.80
2017-05-27T11:06:53.243Z,14.90
2017-05-27T11:09:21.539Z,14.80
2017-05-27T11:11:49.815Z,14.70
2017-05-27T11:14:18.082Z,14.10
2017-05-27T11:16:46.366Z,14.30
2017-05-27T11:19:14.654Z,14.20
2017-05-27T11:21:42.965Z,14.60
2017-05-27T11:24:11.283Z,13.70
2017-05-27T11:26:39.563Z,13.40
2017-05-27T11:29:07.842Z,13.00
2017-05-27T11:31:35.376Z,13.00
2017-05-27T11:34:03.640Z,12.50
2017-05-27T11:36:31.954Z,12.70
2017-05-27T11:39:00.248Z,12.70
2017-05-27T11:41:28.541Z,12.50
2017-05-27T11:43:56.836Z,11.90
2017-05-27T11:46:25.111Z,11.30
2017-05-27T11:48:53.385Z,11.60
2017-05-27T11:51:21.680Z,10.90
2017-05-27T11:53:49.954Z,11.00
2017-05-27T11:56:19.143Z,11.30
2017-05-27T11:58:47.426Z,11.00
2017-05-27T12:01:15.707Z,11.00
2017-05-27T12:03:43.975Z,11.70
2017-05-27T12:06:12.262Z,11.40
2017-05-27T12:08:40.538Z,11.60
2017-05-27T12:11:08.802Z,11.30
2017-05-27T12:13:37.096Z,11.30
2017-05-27T12:16:04.706Z,11.20
2017-05-27T12:18:32.974Z,11.00
2017-05-27T12:21:01.265Z,11.10
2017-05-27T12:23:29.539Z,11.40
2017-05-27T12:25:57.821Z,11.50
2017-05-27T12:28:26.107Z,11.40
2017-05-27T12:30:54.476Z,11.30
2017-05-27T12:33:22.760Z,11.70
2017-05-27T12:35:51.092Z,11.60
2017-05-27T12:38:19.401Z,11.90
2017-05-27T12:40:47.686Z,12.20
2017-05-27T12:43:15.966Z,12.50
2017-05-27T12:45:44.254Z,12.80
2017-05-27T12:48:12.562Z,13.30
2017-05-27T12:50:40.894Z,13.30
2017-05-27T12:53:09.188Z,14.10
2017-05-27T12:55:37.482Z,14.50
2017-05-27T12:58:06.008Z,15.10
2017-05-27T13:00:34.267Z,16.10
2017-05-27T13:03:02.585Z,16.10
2017-05-27T13:05:30.111Z,16.10
2017-05-27T13:07:59.061Z,17.20
2017-05-27T13:10:27.364Z,17.60
2017-05-27T13:12:55.670Z,18.30
2017-05-27T13:15:23.946Z,19.20
2017-05-27T13:17:52.245Z,19.90
2017-05-27T13:20:20.557Z,20.20
2017-05-27T13:22:48.877Z,20.60
2017-05-27T13:25:17.191Z,20.70
2017-05-27T13:27:45.488Z,21.50
2017-05-27T13:30:13.770Z,21.90
2017-05-27T13:32:42.087Z,22.20
2017-05-27T13:35:09.620Z,22.20
2017-05-27T13:37:37.945Z,22.90
2017-05-27T13:40:06.265Z,22.50
2017-05-27T13:42:34.581Z,22.70
2017-05-27T13:45:02.211Z,22.60
2017-05-27T13:47:30.503Z,22.80
2017-05-27T13:49:58.043Z,22.80
2017-05-27T13:52:26.330Z,22.20
2017-05-27T13:54:54.734Z,22.20
2017-05-27T13:57:23.044Z,21.80
2017-05-27T13:59:51.316Z,21.70
2017-05-27T14:02:19.632Z,21.70
2017-05-27T14:04:47.926Z,22.10
2017-05-27T14:07:16.202Z,22.20
2017-05-27T14:09:44.528Z,22.30
2017-05-27T14:12:12.842Z,22.60
2017-05-27T14:14:41.141Z,22.90
2017-05-27T14:17:09.485Z,23.60
2017-05-27T14:19:37.784Z,23.60
2017-05-27T14:22:06.083Z,23.60
2017-05-27T14:24:34.372Z,23.70
2017-05-27T14:27:02.659Z,23.80
2017-05-27T14:29:30.977Z,23.80
2017-05-27T14:31:59.264Z,23.90
2017-05-27T14:34:43.345Z,23.70
2017-05-27T14:37:32.595Z,24.10
2017-05-27T14:42:54.631Z,24.30
2017-05-27T14:45:30.825Z,24.20
2017-05-27T14:47:59.151Z,24.20
2017-05-27T14:50:27.437Z,24.60
2017-05-27T14:52:55.742Z,24.50
2017-05-27T14:55:24.033Z,24.20
2017-05-27T14:57:52.344Z,24.20
2017-05-27T15:00:20.743Z,24.00
2017-05-27T15:02:49.077Z,24.30
2017-05-27T15:05:17.400Z,24.20
2017-05-27T15:07:45.831Z,24.20
2017-05-27T15:10:14.119Z,24.10
2017-05-27T15:12:42.415Z,23.40
2017-05-27T15:15:10.764Z,23.10
2017-05-27T15:17:39.060Z,22.50
2017-05-27T15:20:07.367Z,22.40
2017-05-27T15:22:35.669Z,21.90
2017-05-27T15:25:03.965Z,21.40
2017-05-27T15:27:32.287Z,21.20
2017-05-27T15:30:00.590Z,20.20
2017-05-27T15:32:28.873Z,19.90
2017-05-27T15:34:57.286Z,19.40
2017-05-27T15:37:25.750Z,19.30
2017-05-27T15:39:54.016Z,19.00
2017-05-27T15:42:22.332Z,18.90
2017-05-27T15:44:50.615Z,19.00
2017-05-27T15:47:18.891Z,19.60
2017-05-27T15:49:47.289Z,20.10
2017-05-27T15:52:15.691Z,20.00
2017-05-27T15:54:43.983Z,20.50
2017-05-27T15:57:12.463Z,20.00
2017-05-27T15:59:40.798Z,20.20
2017-05-27T16:02:08.350Z,20.20
2017-05-27T16:04:36.695Z,19.60
2017-05-27T16:07:04.199Z,19.60
2017-05-27T16:09:37.444Z,20.00
2017-05-27T16:12:05.734Z,20.80
2017-05-27T16:14:42.869Z,21.20
2017-05-27T16:17:11.235Z,21.70
2017-05-27T16:19:39.513Z,21.70
2017-05-27T16:22:07.804Z,22.20
2017-05-27T16:24:36.124Z,23.00
2017-05-27T16:27:04.399Z,22.50
2017-05-27T16:29:32.711Z,22.50
2017-05-27T16:32:01.024Z,22.60
2017-05-27T16:34:29.320Z,22.40
2017-05-27T16:36:57.626Z,21.60
2017-05-27T16:39:25.970Z,21.00
2017-05-27T16:41:54.280Z,20.30
2017-05-27T16:44:22.658Z,20.00
2017-05-27T16:46:50.993Z,19.50
2017-05-27T16:49:19.316Z,19.80
2017-05-27T16:51:47.651Z,19.70
2017-05-27T16:54:15.964Z,18.80
2017-05-27T16:56:44.245Z,18.10
2017-05-27T16:59:12.541Z,17.50
2017-05-27T17:01:40.832Z,17.00
2017-05-27T17:04:09.129Z,16.60
2017-05-27T17:06:37.405Z,16.70
2017-05-27T17:09:05.962Z,16.30
2017-05-27T17:11:34.247Z,16.40
2017-05-27T17:14:02.529Z,16.50
2017-05-27T17:16:30.847Z,16.70
2017-05-27T17:18:59.154Z,17.30
2017-05-27T17:21:27.430Z,16.60
2017-05-27T17:23:55.706Z,17.00
2017-05-27T17:26:24.016Z,17.60
2017-05-27T17:28:52.304Z,18.20
2017-05-27T17:31:20.583Z,18.50
2017-05-27T17:33:48.884Z,19.80
2017-05-27T17:36:17.183Z,20.90
2017-05-27T17:38:45.475Z,21.10
2017-05-27T17:41:13.791Z,21.20
2017-05-27T17:43:42.086Z,21.00
2017-05-27T17:46:10.374Z,21.10
2017-05-27T17:48:38.677Z,21.30
2017-05-27T17:51:06.954Z,21.50
2017-05-27T17:53:35.252Z,21.50
2017-05-27T17:56:03.576Z,21.70
2017-05-27T17:58:31.872Z,21.70
2017-05-27T18:01:00.148Z,21.80
2017-05-27T18:03:28.481Z,22.00
2017-05-27T18:05:56.792Z,22.50
2017-05-27T18:08:25.112Z,22.70
2017-05-27T18:10:53.392Z,23.00
2017-05-27T18:13:21.731Z,23.40
2017-05-27T18:15:50.045Z,23.80
2017-05-27T18:18:18.349Z,24.10
2017-05-27T18:20:46.641Z,24.50
2017-05-27T18:23:15.022Z,24.90
2017-05-27T18:25:43.328Z,25.10
2017-05-27T18:28:11.610Z,25.40
2017-05-27T18:30:39.911Z,25.70
2017-05-27T18:33:08.240Z,26.10
2017-05-27T18:35:36.511Z,26.20
2017-05-27T18:38:04.816Z,26.30
2017-05-27T18:40:33.763Z,26.50
2017-05-27T18:43:02.076Z,26.90
2017-05-27T18:45:30.362Z,27.20
2017-05-27T18:47:58.673Z,27.40
2017-05-27T18:50:26.954Z,27.50
2017-05-27T18:52:55.595Z,27.50
2017-05-27T18:55:23.936Z,27.70
2017-05-27T18:57:52.246Z,27.70
2017-05-27T19:00:20.531Z,28.40
2017-05-27T19:02:48.859Z,28.10
2017-05-27T19:05:17.142Z,28.20
2017-05-27T19:07:45.408Z,28.30
2017-05-27T19:10:13.713Z,28.20
2017-05-27T19:12:42.026Z,28.20
2017-05-27T19:15:10.334Z,28.20
2017-05-27T19:17:38.732Z,28.20
2017-05-27T19:20:07.016Z,28.40
2017-05-27T19:22:35.287Z,28.30
2017-05-27T19:25:03.592Z,28.50
2017-05-27T19:27:31.846Z,28.60
2017-05-27T19:30:00.199Z,28.60
2017-05-27T19:32:28.499Z,29.00
2017-05-27T19:34:56.799Z,29.20
2017-05-27T19:37:25.076Z,29.10
2017-05-27T19:39:53.350Z,29.30
2017-05-27T19:42:21.659Z,29.40
2017-05-27T19:44:49.171Z,29.30
2017-05-27T19:47:16.664Z,29.30
2017-05-27T19:49:44.180Z,29.40
2017-05-27T19:52:12.504Z,29.60
2017-05-27T19:54:40.786Z,29.70
2017-05-27T19:57:09.051Z,29.80
2017-05-27T19:59:37.616Z,29.70
2017-05-27T20:02:05.969Z,29.90
2017-05-27T20:04:34.253Z,30.40
2017-05-27T20:07:02.569Z,30.00
2017-05-27T20:09:30.873Z,30.10
2017-05-27T20:11:59.144Z,30.20
2017-05-27T20:14:27.434Z,30.60
2017-05-27T20:16:55.770Z,30.90
2017-05-27T20:19:24.078Z,31.00
2017-05-27T20:21:52.364Z,31.60
2017-05-27T20:24:20.631Z,32.10
2017-05-27T20:26:49.055Z,31.80
2017-05-27T20:29:17.374Z,31.80
2017-05-27T20:31:45.685Z,32.00
2017-05-27T20:34:13.972Z,32.20
2017-05-27T20:36:42.278Z,32.30
2017-05-27T20:39:10.638Z,32.60
2017-05-27T20:41:38.963Z,32.40
2017-05-27T20:44:07.297Z,32.40
2017-05-27T20:46:35.610Z,32.40
2017-05-27T20:49:03.916Z,32.50
2017-05-27T20:51:32.207Z,32.30
2017-05-27T20:54:00.561Z,32.50
2017-05-27T20:56:28.099Z,32.50
2017-05-27T20:58:56.379Z,32.40
2017-05-27T21:01:24.658Z,32.40
2017-05-27T21:03:52.947Z,32.50
2017-05-27T21:06:21.296Z,32.40
2017-05-27T21:08:49.673Z,33.10
2017-05-27T21:11:17.986Z,32.30
2017-05-27T21:13:46.297Z,32.30
2017-05-27T21:16:14.619Z,32.20
2017-05-27T21:18:42.944Z,32.50
2017-05-27T21:21:12.180Z,32.40
2017-05-27T21:23:40.476Z,32.40
2017-05-27T21:26:08.841Z,32.50
2017-05-27T21:28:37.171Z,32.60
2017-05-27T21:31:05.473Z,32.80
2017-05-27T21:33:33.793Z,32.90
2017-05-27T21:36:02.102Z,33.20
2017-05-27T21:38:30.390Z,33.30
2017-05-27T21:40:58.730Z,33.30
2017-05-27T21:43:27.113Z,33.50
2017-05-27T21:45:55.749Z,33.70
2017-05-27T21:48:24.060Z,33.90
2017-05-27T21:50:52.339Z,34.00
2017-05-27T21:53:22.614Z,34.10
2017-05-27T21:55:50.980Z,34.10
2017-05-27T21:58:19.263Z,34.30
2017-05-27T22:00:47.585Z,34.50
2017-05-27T22:03:15.912Z,34.60
2017-05-27T22:05:44.261Z,34.60
2017-05-27T22:08:12.588Z,34.70
2017-05-27T22:10:40.164Z,35.30
2017-05-27T22:13:08.463Z,35.00
2017-05-27T22:15:36.767Z,35.20
2017-05-27T22:18:05.069Z,35.20
2017-05-27T22:20:33.351Z,35.50
2017-05-27T22:23:01.627Z,35.50
2017-05-27T22:25:29.915Z,35.60
2017-05-27T22:27:58.211Z,36.00
2017-05-27T22:30:26.515Z,36.70
2017-05-27T22:32:54.825Z,36.60
2017-05-27T22:35:23.126Z,36.90
2017-05-27T22:37:51.524Z,37.10
2017-05-27T22:40:19.792Z,36.90
2017-05-27T22:42:48.079Z,37.70
2017-05-27T22:45:16.359Z,38.10
2017-05-27T22:47:44.646Z,37.40
2017-05-27T22:50:12.945Z,37.20
2017-05-27T22:52:41.257Z,37.30
2017-05-27T22:55:09.564Z,37.10
2017-05-27T22:57:37.886Z,37.30
2017-05-27T23:00:06.179Z,37.10
2017-05-27T23:02:34.571Z,37.20
2017-05-27T23:05:02.855Z,37.40
2017-05-27T23:07:31.177Z,37.70
2017-05-27T23:09:59.450Z,37.70
2017-05-27T23:12:27.728Z,37.90
2017-05-27T23:14:56.040Z,38.20
2017-05-27T23:17:24.351Z,38.40
2017-05-27T23:19:52.651Z,38.70
2017-05-27T23:22:20.924Z,38.50
2017-05-27T23:24:49.439Z,38.80
2017-05-27T23:27:17.723Z,38.70
2017-05-27T23:29:46.003Z,38.80
2017-05-27T23:32:14.416Z,38.60
2017-05-27T23:34:41.952Z,38.50
2017-05-27T23:37:09.474Z,38.60
2017-05-27T23:39:37.765Z,38.80
2017-05-27T23:42:06.075Z,39.10
2017-05-27T23:44:34.406Z,39.10
2017-05-27T23:47:02.709Z,39.30
2017-05-27T23:49:30.992Z,39.50
2017-05-27T23:51:59.280Z,39.50
2017-05-27T23:54:27.566Z,39.80
2017-05-27T23:56:55.848Z,40.10
2017-05-27T23:59:24.131Z,40.20
